Trout Creek, Canada
Current Conditions -  °F | °C
As of 11:00 PM on Thursday 18 Dec 2014 (Local Time) from CYQA Reporting Station
Overcast Overcast  
Wind Chill:   Ceiling: 1000
Heat Index: 18°   Visibility: 9mi
Dew Point: 16°   Wind: 12mph
Humidity: 93%   Direction: 320°NW
Pressure: 30.08"   Gusts: 17mph
Location:  45.98°N, 79.37°W
Report Text: CYQA 190400Z AUTO 32010G15KT 9SM OVC010 M08/M09 A3008 RMK SLP202
Loading
Personal Weather Stations






























Interactive Weather Map New forecast layout! Learn more

10-Day Weather Forecast

Advertisements
Track Severe Weather on mobile